Time;durP1;ratioP1;P1;durP2;ratioP2;P2;SDS_P1;SDS_P2;PMS_P1;PMS_P2;Temp;Humidity;BMP_temperature;BMP_pressure;BME280_temperature;BME280_humidity;BME280_pressure;Samples;Min_cycle;Max_cycle;Signal;HPM_P1;HPM_P2
2021/12/12 00:02:07;;;;;;;2.20;1.88;;;17.50;42.80;;;;;;5087510;28;46780;-25
2021/12/12 00:04:36;;;;;;;2.20;1.98;;;17.50;42.80;;;;;;5087236;28;47266;-26
2021/12/12 00:07:05;;;;;;;2.20;2.00;;;17.50;42.80;;;;;;5087389;28;46925;-26
2021/12/12 00:09:33;;;;;;;2.15;2.03;;;17.50;42.80;;;;;;5087563;28;46916;-26
2021/12/12 00:12:01;;;;;;;2.00;1.83;;;17.50;42.80;;;;;;5086879;28;47828;-26
2021/12/12 00:14:29;;;;;;;2.17;1.98;;;17.40;42.90;;;;;;5087340;28;46865;-26
2021/12/12 00:16:56;;;;;;;2.15;1.95;;;17.40;42.80;;;;;;5086865;28;47193;-26
2021/12/12 00:19:25;;;;;;;2.03;1.92;;;17.40;42.90;;;;;;5087164;28;46881;-26
2021/12/12 00:21:53;;;;;;;2.20;2.00;;;17.40;43.00;;;;;;5086704;28;47397;-17
2021/12/12 00:24:19;;;;;;;2.08;1.88;;;17.30;42.90;;;;;;5087256;28;46842;-17
2021/12/12 00:26:47;;;;;;;2.20;2.00;;;17.30;42.90;;;;;;5086605;28;46816;-16
2021/12/12 00:29:14;;;;;;;2.85;2.20;;;17.30;42.90;;;;;;5087029;28;46887;-16
2021/12/12 00:31:41;;;;;;;2.30;2.10;;;17.30;42.90;;;;;;5086517;28;48094;-17
2021/12/12 00:34:07;;;;;;;2.05;1.85;;;17.30;42.90;;;;;;5087024;28;46962;-17
2021/12/12 00:36:38;;;;;;;2.75;2.17;;;17.30;42.90;;;;;;5086745;28;47007;-26
2021/12/12 00:39:07;;;;;;;2.50;1.92;;;17.20;43.00;;;;;;5087352;28;47237;-17
2021/12/12 00:41:36;;;;;;;2.38;1.80;;;17.20;42.90;;;;;;5086600;28;48018;-16
2021/12/12 00:44:03;;;;;;;1.92;1.83;;;17.20;43.00;;;;;;5086672;28;46961;-17
2021/12/12 00:46:30;;;;;;;1.80;1.70;;;17.10;42.90;;;;;;5086725;28;46872;-26
2021/12/12 00:48:56;;;;;;;1.88;1.77;;;17.10;43.00;;;;;;5087096;28;46927;-25
2021/12/12 00:51:29;;;;;;;2.67;1.90;;;17.10;43.00;;;;;;5086630;27;48258;-26
2021/12/12 00:53:57;;;;;;;2.45;2.10;;;17.10;43.00;;;;;;5086528;28;46893;-26
2021/12/12 00:56:24;;;;;;;2.15;1.90;;;17.10;43.10;;;;;;5086100;28;47064;-26
2021/12/12 00:58:50;;;;;;;2.15;1.90;;;17.00;43.00;;;;;;5086895;27;46914;-26
2021/12/12 01:01:20;;;;;;;1.80;1.70;;;17.00;43.10;;;;;;5086319;28;46832;-26
2021/12/12 01:03:48;;;;;;;2.22;1.88;;;17.00;43.10;;;;;;5086625;28;47273;-25
2021/12/12 01:06:17;;;;;;;2.00;1.90;;;17.00;43.10;;;;;;5086215;27;47039;-16
2021/12/12 01:08:44;;;;;;;2.05;1.90;;;16.90;43.10;;;;;;5085733;27;47010;-25
2021/12/12 01:11:14;;;;;;;2.13;1.92;;;16.90;43.20;;;;;;5086302;27;47949;-17
2021/12/12 01:13:41;;;;;;;2.15;2.00;;;16.90;43.20;;;;;;5086217;28;46975;-26
2021/12/12 01:16:11;;;;;;;2.13;1.92;;;16.90;43.20;;;;;;5085861;28;46893;-26
2021/12/12 01:18:40;;;;;;;2.40;2.05;;;16.80;43.80;;;;;;5086520;28;47226;-26
2021/12/12 01:21:11;;;;;;;2.10;1.88;;;16.80;43.20;;;;;;5085669;28;48941;-26
2021/12/12 01:23:39;;;;;;;2.15;1.95;;;16.80;43.20;;;;;;5086074;28;46934;-26
2021/12/12 01:26:07;;;;;;;2.30;2.00;;;16.80;43.90;;;;;;5086091;28;46855;-16
2021/12/12 01:28:36;;;;;;;2.10;1.90;;;16.70;43.30;;;;;;5086194;28;46884;-26
2021/12/12 01:31:05;;;;;;;1.73;1.63;;;16.70;43.30;;;;;;5086027;28;47894;-25
2021/12/12 01:33:34;;;;;;;2.53;1.80;;;16.70;43.40;;;;;;5086029;28;47202;-17
2021/12/12 01:36:03;;;;;;;2.13;1.90;;;16.70;43.30;;;;;;5085680;28;46972;-17
2021/12/12 01:41:14;;;;;;;1.65;1.55;;;16.60;43.30;;;;;;5084768;28;46893;-16
2021/12/12 01:43:43;;;;;;;2.22;2.03;;;16.60;43.40;;;;;;5085968;28;46888;-17
2021/12/12 01:46:15;;;;;;;2.22;1.90;;;16.60;43.40;;;;;;5085873;28;46814;-26
2021/12/12 01:48:44;;;;;;;2.15;1.60;;;16.60;43.40;;;;;;5086208;28;46830;-25
2021/12/12 01:51:11;;;;;;;2.72;1.83;;;16.60;43.40;;;;;;5085431;28;47857;-16
2021/12/12 01:53:39;;;;;;;1.90;1.80;;;16.50;43.30;;;;;;5085948;27;46913;-17
2021/12/12 01:56:10;;;;;;;1.70;1.60;;;16.50;43.40;;;;;;5085587;28;46938;-16
2021/12/12 01:58:39;;;;;;;1.60;1.50;;;16.50;43.40;;;;;;5085768;28;46887;-17
2021/12/12 02:01:08;;;;;;;1.67;1.58;;;16.50;43.40;;;;;;5085542;28;48090;-26
2021/12/12 02:03:37;;;;;;;1.88;1.65;;;16.50;43.40;;;;;;5085613;28;47506;-25
2021/12/12 02:06:06;;;;;;;1.88;1.70;;;16.50;43.50;;;;;;5085290;28;46917;-17
2021/12/12 02:08:33;;;;;;;2.13;1.92;;;16.50;44.00;;;;;;5085590;28;46929;-17
2021/12/12 02:11:02;;;;;;;2.10;1.90;;;16.40;43.40;;;;;;5085514;28;49069;-17
2021/12/12 02:13:30;;;;;;;2.03;1.83;;;16.40;43.40;;;;;;5085198;28;46862;-26
2021/12/12 02:15:59;;;;;;;2.03;1.92;;;16.40;43.50;;;;;;5085109;27;46897;-26
2021/12/12 02:18:31;;;;;;;2.67;1.98;;;16.40;43.50;;;;;;5085713;28;47242;-25
2021/12/12 02:21:08;;;;;;;2.30;1.88;;;16.30;43.50;;;;;;5086898;27;47875;-26
2021/12/12 02:23:49;;;;;;;2.08;1.88;;;16.30;43.50;;;;;;5088829;28;47495;-26
2021/12/12 02:37:12;;;;;;;1.90;1.80;;;16.20;43.40;;;;;;5086355;28;46889;-16
2021/12/12 02:39:40;;;;;;;1.80;1.63;;;16.20;43.50;;;;;;5089062;28;46841;-18
2021/12/12 02:42:09;;;;;;;1.92;1.73;;;16.20;43.50;;;;;;5088675;28;47906;-16
2021/12/12 02:44:37;;;;;;;1.73;1.63;;;16.20;43.50;;;;;;5088812;28;47011;-17
2021/12/12 02:47:09;;;;;;;2.08;1.88;;;16.20;43.50;;;;;;5088525;28;47018;-17
2021/12/12 02:49:42;;;;;;;1.55;1.45;;;16.20;43.50;;;;;;5088803;28;46843;-26
2021/12/12 02:52:10;;;;;;;1.58;1.42;;;16.20;43.50;;;;;;5088527;28;46809;-26
2021/12/12 02:54:37;;;;;;;2.28;1.70;;;16.20;43.60;;;;;;5088693;28;46824;-17
2021/12/12 02:57:06;;;;;;;2.75;1.80;;;16.10;43.50;;;;;;5088465;28;47248;-26
2021/12/12 02:59:33;;;;;;;1.80;1.70;;;16.10;43.50;;;;;;5088535;28;46982;-26
2021/12/12 03:02:02;;;;;;;1.73;1.63;;;16.10;43.50;;;;;;5088363;28;46800;-16
2021/12/12 03:04:28;;;;;;;1.48;1.38;;;16.10;43.40;;;;;;5088476;28;46818;-17
2021/12/12 03:06:55;;;;;;;1.50;1.40;;;16.10;43.50;;;;;;5088415;28;47135;-27
2021/12/12 03:09:24;;;;;;;1.85;1.60;;;16.10;43.50;;;;;;5088704;28;46946;-17
2021/12/12 03:11:52;;;;;;;1.58;1.48;;;16.10;43.40;;;;;;5087735;28;46959;-16
2021/12/12 03:14:20;;;;;;;1.40;1.30;;;16.10;43.50;;;;;;5088014;28;46967;-17
2021/12/12 03:16:47;;;;;;;1.52;1.42;;;16.00;43.40;;;;;;5088123;28;47031;-16
2021/12/12 03:19:14;;;;;;;1.50;1.40;;;16.00;43.40;;;;;;5088165;28;47261;-26
2021/12/12 03:21:43;;;;;;;1.63;1.52;;;16.00;43.50;;;;;;5087851;28;47841;-25
2021/12/12 03:24:11;;;;;;;1.63;1.48;;;16.00;43.40;;;;;;5087846;28;46917;-26
2021/12/12 03:26:38;;;;;;;1.55;1.45;;;16.00;43.50;;;;;;5088022;28;47078;-18
2021/12/12 03:29:05;;;;;;;1.50;1.40;;;16.00;43.50;;;;;;5088023;28;46839;-16
2021/12/12 03:31:35;;;;;;;1.42;1.33;;;16.00;43.50;;;;;;5086692;27;48042;-26
2021/12/12 03:34:04;;;;;;;1.52;1.42;;;15.90;43.50;;;;;;5087617;28;46920;-15
2021/12/12 03:36:30;;;;;;;2.08;1.35;;;15.90;43.50;;;;;;5087842;28;46937;-16
2021/12/12 03:38:59;;;;;;;1.40;1.30;;;15.90;43.50;;;;;;5087895;28;46907;-16
2021/12/12 03:41:29;;;;;;;2.47;1.60;;;15.90;43.50;;;;;;5087389;28;47100;-17
2021/12/12 03:43:58;;;;;;;1.40;1.30;;;15.90;43.50;;;;;;5087763;28;46940;-17
2021/12/12 03:46:24;;;;;;;1.45;1.35;;;15.80;43.50;;;;;;5087546;28;46860;-16
2021/12/12 03:48:53;;;;;;;1.50;1.40;;;15.80;43.50;;;;;;5087984;27;47138;-16
2021/12/12 03:51:21;;;;;;;1.50;1.40;;;15.80;43.60;;;;;;5087530;28;49069;-26
2021/12/12 03:53:48;;;;;;;1.58;1.48;;;15.80;43.60;;;;;;5087328;28;47004;-26
2021/12/12 03:56:16;;;;;;;1.42;1.20;;;15.80;43.60;;;;;;5086794;28;47096;-18
2021/12/12 03:58:42;;;;;;;1.17;1.10;;;15.80;43.60;;;;;;5087866;28;47062;-25
2021/12/12 04:01:12;;;;;;;1.80;1.30;;;15.80;43.50;;;;;;5087615;28;49110;-16
2021/12/12 04:03:39;;;;;;;1.30;1.20;;;15.80;43.60;;;;;;5087572;28;46977;-16
2021/12/12 04:06:09;;;;;;;1.20;1.13;;;15.70;43.60;;;;;;5087144;28;47012;-26
2021/12/12 04:08:36;;;;;;;1.33;1.23;;;15.70;43.60;;;;;;5087376;28;47278;-26
2021/12/12 04:11:04;;;;;;;1.42;1.30;;;15.70;43.60;;;;;;5087034;28;49046;-26
2021/12/12 04:13:30;;;;;;;1.30;1.20;;;15.70;43.60;;;;;;5087314;27;47123;-26
2021/12/12 04:15:57;;;;;;;1.15;1.15;;;15.70;43.60;;;;;;5087399;28;46818;-26
2021/12/12 04:18:25;;;;;;;1.10;1.10;;;15.70;43.60;;;;;;5087565;28;46930;-18
2021/12/12 04:20:52;;;;;;;1.13;1.13;;;15.70;43.60;;;;;;5086808;28;49047;-26
2021/12/12 04:23:20;;;;;;;1.13;1.02;;;15.70;43.60;;;;;;5086955;28;46897;-25
2021/12/12 04:25:47;;;;;;;1.10;1.10;;;15.60;43.60;;;;;;5086953;28;46877;-26
2021/12/12 04:28:14;;;;;;;0.82;0.82;;;15.60;43.60;;;;;;5087055;28;46885;-25
2021/12/12 04:30:41;;;;;;;1.05;1.05;;;15.60;43.70;;;;;;5086920;28;46913;-26
2021/12/12 04:33:07;;;;;;;0.98;0.98;;;15.60;43.70;;;;;;5087101;28;47239;-26
2021/12/12 04:35:34;;;;;;;1.00;1.00;;;15.60;43.70;;;;;;5087101;28;46850;-17
2021/12/12 04:38:01;;;;;;;1.65;0.93;;;15.60;43.60;;;;;;5086950;28;47172;-26
2021/12/12 04:40:31;;;;;;;1.20;1.10;;;15.50;43.60;;;;;;5086827;28;48048;-26
2021/12/12 04:42:58;;;;;;;1.23;1.13;;;15.50;43.60;;;;;;5086746;27;46766;-17
2021/12/12 04:45:32;;;;;;;1.00;1.00;;;15.60;43.60;;;;;;5086904;27;46899;-16
2021/12/12 04:50:51;;;;;;;1.30;0.95;;;15.50;43.70;;;;;;5084955;28;47435;-17
2021/12/12 04:53:19;;;;;;;1.20;1.10;;;15.50;43.70;;;;;;5086788;28;47374;-26
2021/12/12 04:55:53;;;;;;;0.90;0.90;;;15.50;43.80;;;;;;5086076;28;47040;-26
2021/12/12 04:58:22;;;;;;;1.00;1.00;;;15.50;43.80;;;;;;5086812;28;47008;-26
2021/12/12 05:00:50;;;;;;;1.08;1.08;;;15.50;43.80;;;;;;5086466;28;46894;-26
2021/12/12 05:03:19;;;;;;;1.08;1.05;;;15.40;43.80;;;;;;5086301;28;47276;-17
2021/12/12 05:05:50;;;;;;;1.10;1.00;;;15.40;44.30;;;;;;5086462;28;46924;-26
2021/12/12 05:08:21;;;;;;;0.90;0.80;;;15.40;43.80;;;;;;5086586;28;46976;-17
2021/12/12 05:10:51;;;;;;;0.90;0.90;;;15.40;43.80;;;;;;5086085;28;47895;-17
2021/12/12 05:13:20;;;;;;;1.00;1.00;;;15.40;43.80;;;;;;5086378;28;47392;-17
2021/12/12 05:15:48;;;;;;;0.93;0.93;;;15.40;43.80;;;;;;5086312;28;46806;-17
2021/12/12 05:18:18;;;;;;;0.85;0.85;;;15.40;43.80;;;;;;5086490;28;47139;-17
2021/12/12 05:20:46;;;;;;;0.70;0.70;;;15.40;43.70;;;;;;5086194;28;48131;-17
2021/12/12 05:23:14;;;;;;;0.95;0.95;;;15.30;43.80;;;;;;5086204;28;46892;-26
2021/12/12 05:25:43;;;;;;;0.98;0.98;;;15.30;43.80;;;;;;5085809;28;46914;-26
2021/12/12 05:28:11;;;;;;;0.90;0.90;;;15.30;43.80;;;;;;5086649;28;47253;-26
2021/12/12 05:30:38;;;;;;;1.02;1.00;;;15.30;43.70;;;;;;5086017;28;48065;-17
2021/12/12 05:33:05;;;;;;;1.00;1.00;;;15.30;43.70;;;;;;5085772;28;46962;-26
2021/12/12 05:35:33;;;;;;;1.02;1.02;;;15.30;43.70;;;;;;5085687;28;46803;-17
2021/12/12 05:38:00;;;;;;;0.80;0.80;;;15.30;44.30;;;;;;5086323;28;47337;-17
2021/12/12 05:40:28;;;;;;;0.90;0.90;;;15.20;43.70;;;;;;5085865;28;48116;-17
2021/12/12 05:42:59;;;;;;;1.23;1.17;;;15.20;43.80;;;;;;5086328;28;47401;-26
2021/12/12 05:45:27;;;;;;;0.90;0.90;;;15.20;43.80;;;;;;5086036;28;46874;-17
2021/12/12 05:47:53;;;;;;;1.00;1.00;;;15.20;43.70;;;;;;5085887;28;46871;-17
2021/12/12 05:50:20;;;;;;;1.00;0.90;;;15.20;43.80;;;;;;5085714;28;48166;-26
2021/12/12 05:52:47;;;;;;;1.27;1.17;;;15.10;43.80;;;;;;5085719;28;46907;-17
2021/12/12 05:55:14;;;;;;;1.00;1.00;;;15.10;43.70;;;;;;5084461;28;46993;-17
2021/12/12 05:57:43;;;;;;;1.02;0.93;;;15.20;43.80;;;;;;5085778;28;46928;-26
2021/12/12 06:00:12;;;;;;;1.20;1.10;;;15.10;43.80;;;;;;5085509;28;48013;-17
2021/12/12 06:02:41;;;;;;;1.40;1.30;;;15.10;43.70;;;;;;5085657;27;46995;-17
2021/12/12 06:05:09;;;;;;;1.20;1.10;;;15.10;43.70;;;;;;5085550;28;46890;-26
2021/12/12 06:07:35;;;;;;;1.38;1.27;;;15.10;43.90;;;;;;5085747;28;46945;-18
2021/12/12 06:10:03;;;;;;;1.20;1.10;;;15.10;43.70;;;;;;5085269;28;48778;-17
2021/12/12 06:12:30;;;;;;;1.30;1.20;;;15.10;43.80;;;;;;5085605;28;46847;-26
2021/12/12 06:14:57;;;;;;;1.23;1.13;;;15.10;43.80;;;;;;5085448;27;46904;-26
2021/12/12 06:17:24;;;;;;;1.20;1.10;;;15.10;43.80;;;;;;5085523;28;47299;-17
2021/12/12 06:19:52;;;;;;;1.15;1.13;;;15.00;43.70;;;;;;5085557;28;46874;-26
2021/12/12 06:22:18;;;;;;;1.45;1.35;;;15.00;43.80;;;;;;5085466;28;46899;-26
2021/12/12 06:24:45;;;;;;;1.45;1.35;;;15.00;43.80;;;;;;5085426;28;47019;-17
2021/12/12 06:27:14;;;;;;;1.08;1.08;;;15.00;43.70;;;;;;5085456;28;46930;-26
2021/12/12 06:29:40;;;;;;;1.40;1.30;;;15.00;43.80;;;;;;5085251;28;47931;-26
2021/12/12 06:32:08;;;;;;;1.10;1.10;;;15.00;43.80;;;;;;5085340;28;46969;-26
2021/12/12 06:34:34;;;;;;;1.33;1.23;;;15.00;43.70;;;;;;5085134;27;46865;-17
2021/12/12 06:37:03;;;;;;;1.15;1.15;;;15.00;43.70;;;;;;5085619;28;46824;-19
2021/12/12 06:39:29;;;;;;;1.10;1.10;;;14.90;43.70;;;;;;5084951;28;48122;-26
2021/12/12 06:41:56;;;;;;;1.35;1.25;;;14.90;43.70;;;;;;5084712;28;47033;-26
2021/12/12 06:44:23;;;;;;;1.00;1.00;;;14.90;43.70;;;;;;5085115;28;46768;-26
2021/12/12 06:46:50;;;;;;;0.93;0.93;;;14.90;43.80;;;;;;5084918;28;47269;-26
2021/12/12 06:49:17;;;;;;;1.23;1.13;;;14.90;43.70;;;;;;5085269;28;48145;-25
2021/12/12 06:51:45;;;;;;;1.02;1.00;;;14.80;43.70;;;;;;5084789;28;46887;-16
2021/12/12 06:54:16;;;;;;;1.10;1.10;;;14.80;43.70;;;;;;5084851;28;46798;-17
2021/12/12 06:56:43;;;;;;;0.90;0.90;;;14.80;43.70;;;;;;5084806;28;47205;-26
2021/12/12 06:59:09;;;;;;;1.17;1.00;;;14.80;43.80;;;;;;5084795;28;46800;-18
2021/12/12 07:01:36;;;;;;;1.38;0.93;;;14.90;43.70;;;;;;5084776;28;47441;-26
2021/12/12 07:04:04;;;;;;;0.82;0.82;;;14.80;43.70;;;;;;5084979;28;46784;-17
2021/12/12 07:06:31;;;;;;;0.82;0.82;;;14.80;43.70;;;;;;5084935;27;47268;-17
2021/12/12 07:08:58;;;;;;;0.90;0.90;;;14.80;43.70;;;;;;5087887;28;49071;-26
2021/12/12 07:11:27;;;;;;;0.90;0.90;;;14.80;43.70;;;;;;5088482;28;47519;-18
2021/12/12 07:13:54;;;;;;;0.80;0.80;;;14.80;43.70;;;;;;5088514;27;46809;-26
2021/12/12 07:16:21;;;;;;;1.30;0.88;;;14.80;43.70;;;;;;5088220;28;47274;-26
2021/12/12 07:18:48;;;;;;;0.80;0.80;;;14.80;43.70;;;;;;5088244;28;48131;-26
2021/12/12 07:21:15;;;;;;;0.77;0.77;;;14.80;43.70;;;;;;5087879;28;46894;-17
2021/12/12 07:23:43;;;;;;;0.80;0.80;;;14.80;43.70;;;;;;5088072;28;46894;-25
2021/12/12 07:26:11;;;;;;;0.77;0.77;;;14.70;43.70;;;;;;5088030;28;47257;-18
2021/12/12 07:28:39;;;;;;;0.88;0.88;;;14.70;43.60;;;;;;5087785;28;49085;-26
2021/12/12 07:31:06;;;;;;;0.85;0.85;;;14.80;43.70;;;;;;5087637;28;46797;-26
2021/12/12 07:33:33;;;;;;;0.75;0.75;;;14.70;43.70;;;;;;5087880;28;47032;-26
2021/12/12 07:36:01;;;;;;;0.68;0.68;;;14.80;43.80;;;;;;5087811;28;46911;-17
2021/12/12 07:38:28;;;;;;;1.10;0.90;;;14.80;43.70;;;;;;5087816;28;46837;-26
2021/12/12 07:40:55;;;;;;;0.80;0.80;;;14.70;43.70;;;;;;5087550;28;46968;-17
2021/12/12 07:43:21;;;;;;;0.60;0.60;;;14.80;43.70;;;;;;5087994;28;46996;-17
2021/12/12 07:45:49;;;;;;;0.63;0.63;;;14.80;43.80;;;;;;5087884;28;47260;-26
2021/12/12 07:48:16;;;;;;;0.85;0.85;;;14.70;43.70;;;;;;5087705;28;48119;-26
2021/12/12 07:50:44;;;;;;;0.80;0.80;;;14.80;43.80;;;;;;5087232;28;46950;-17
2021/12/12 07:53:11;;;;;;;0.82;0.82;;;14.70;43.80;;;;;;5087831;28;46859;-26
2021/12/12 07:55:37;;;;;;;0.75;0.75;;;14.80;43.80;;;;;;5087383;28;46892;-27
2021/12/12 07:58:06;;;;;;;0.75;0.75;;;14.70;43.70;;;;;;5087382;28;47174;-18
2021/12/12 08:00:33;;;;;;;0.90;0.85;;;14.70;43.80;;;;;;5087463;28;47083;-26
2021/12/12 08:03:01;;;;;;;0.80;0.80;;;14.70;43.80;;;;;;5087543;28;47025;-17
2021/12/12 08:05:29;;;;;;;0.82;0.82;;;14.70;43.80;;;;;;5087249;28;46866;-16
2021/12/12 08:07:58;;;;;;;0.90;0.90;;;14.70;43.80;;;;;;5087234;28;48907;-17
2021/12/12 08:10:24;;;;;;;0.73;0.73;;;14.70;43.80;;;;;;5087207;28;47450;-26
2021/12/12 08:12:51;;;;;;;0.70;0.70;;;14.70;43.90;;;;;;5087523;28;46801;-26
2021/12/12 08:15:18;;;;;;;1.08;1.05;;;14.70;43.80;;;;;;5086980;28;46917;-26
2021/12/12 08:17:45;;;;;;;0.90;0.90;;;14.70;43.80;;;;;;5086522;27;49064;-17
2021/12/12 08:20:13;;;;;;;1.10;1.00;;;14.70;43.80;;;;;;5087034;28;47289;-26
2021/12/12 08:22:40;;;;;;;0.88;0.88;;;14.70;43.90;;;;;;5087426;27;46809;-26
2021/12/12 08:25:08;;;;;;;0.82;0.82;;;14.70;43.90;;;;;;5087254;28;46909;-26
2021/12/12 08:27:35;;;;;;;1.00;0.90;;;14.70;43.90;;;;;;5087165;28;49081;-26
2021/12/12 08:30:02;;;;;;;1.10;1.00;;;14.70;43.90;;;;;;5086599;28;47145;-17
2021/12/12 08:32:28;;;;;;;0.90;0.90;;;14.70;43.90;;;;;;5087197;28;46816;-17
2021/12/12 08:34:55;;;;;;;1.35;1.25;;;14.70;43.80;;;;;;5087261;28;46918;-17
2021/12/12 08:37:23;;;;;;;1.10;0.93;;;14.70;43.90;;;;;;5087087;28;46891;-27
2021/12/12 08:39:50;;;;;;;0.80;0.80;;;14.70;43.90;;;;;;5086968;28;47466;-26
2021/12/12 08:42:17;;;;;;;0.90;0.90;;;14.70;43.90;;;;;;5086855;28;46996;-26
2021/12/12 08:44:43;;;;;;;0.82;0.82;;;14.70;43.90;;;;;;5086862;28;47121;-17
2021/12/12 08:47:12;;;;;;;1.05;1.00;;;14.70;43.80;;;;;;5086663;28;47658;-18
2021/12/12 08:49:40;;;;;;;1.05;1.00;;;14.70;43.90;;;;;;5086501;28;47625;-25
2021/12/12 08:52:10;;;;;;;1.20;1.10;;;14.70;43.90;;;;;;5086888;28;46841;-18
2021/12/12 08:54:40;;;;;;;0.80;0.80;;;14.70;43.90;;;;;;5087042;28;46986;-26
2021/12/12 08:57:10;;;;;;;1.30;1.20;;;14.70;43.90;;;;;;5086394;28;48774;-18
2021/12/12 08:59:37;;;;;;;1.30;1.20;;;14.70;43.90;;;;;;5086708;28;46882;-26
2021/12/12 09:02:06;;;;;;;1.85;1.42;;;14.70;43.90;;;;;;5086771;28;47144;-26
2021/12/12 09:04:36;;;;;;;1.17;1.10;;;14.70;44.00;;;;;;5086622;28;46853;-16
2021/12/12 09:07:05;;;;;;;1.27;1.08;;;14.70;43.90;;;;;;5086643;28;47876;-18
2021/12/12 09:09:36;;;;;;;1.20;1.10;;;14.80;43.90;;;;;;5086360;28;46968;-26
2021/12/12 09:12:06;;;;;;;0.88;0.88;;;14.80;44.00;;;;;;5086381;28;46835;-16
2021/12/12 09:14:36;;;;;;;1.08;1.05;;;14.90;43.80;;;;;;5086467;27;46941;-26
2021/12/12 09:17:05;;;;;;;1.20;1.10;;;15.20;43.60;;;;;;5086038;28;47132;-17
2021/12/12 09:19:35;;;;;;;1.20;1.13;;;15.60;43.10;;;;;;5086486;28;46886;-17
2021/12/12 09:22:04;;;;;;;1.15;1.10;;;16.00;42.40;;;;;;5086240;28;46849;-26
2021/12/12 09:24:43;;;;;;;1.00;1.00;;;16.40;41.90;;;;;;5086583;27;46957;-26
2021/12/12 09:27:12;;;;;;;1.63;1.30;;;16.70;41.50;;;;;;5086045;28;48143;-17
2021/12/12 09:29:43;;;;;;;1.23;1.05;;;17.00;41.00;;;;;;5085162;27;46937;-26
2021/12/12 09:32:11;;;;;;;1.65;0.98;;;17.20;40.70;;;;;;5085975;28;46888;-26
2021/12/12 09:34:41;;;;;;;1.20;1.10;;;17.40;40.40;;;;;;5086042;28;47179;-16
2021/12/12 09:37:11;;;;;;;1.40;1.10;;;17.70;40.10;;;;;;5086011;27;48097;-16
2021/12/12 09:39:39;;;;;;;1.45;1.35;;;17.90;39.80;;;;;;5086213;28;47247;-26
2021/12/12 09:42:21;;;;;;;1.33;1.17;;;18.00;39.50;;;;;;5085769;28;46890;-16
2021/12/12 09:44:59;;;;;;;1.30;1.20;;;18.20;39.20;;;;;;5085923;28;47111;-26
2021/12/12 09:47:59;;;;;;;1.10;1.05;;;18.40;39.10;;;;;;5085643;28;49065;-26
2021/12/12 09:53:34;;;;;;;1.30;1.20;;;18.70;38.70;;;;;;5086068;28;46854;-26
2021/12/12 09:56:05;;;;;;;2.03;1.20;;;18.80;38.60;;;;;;5085382;28;47210;-26
2021/12/12 09:58:41;;;;;;;1.20;1.10;;;18.90;38.50;;;;;;5085774;28;48267;-26
2021/12/12 10:01:10;;;;;;;1.10;1.10;;;19.00;38.40;;;;;;5085495;28;46889;-17
2021/12/12 10:03:46;;;;;;;1.15;1.05;;;19.10;38.20;;;;;;5085787;28;46878;-17
2021/12/12 10:06:16;;;;;;;1.05;1.05;;;19.20;38.20;;;;;;5085442;28;47198;-17
2021/12/12 10:08:52;;;;;;;1.20;0.88;;;19.30;38.10;;;;;;5085637;28;46988;-26
2021/12/12 10:11:23;;;;;;;1.23;1.13;;;19.40;38.00;;;;;;5085377;28;46909;-26
2021/12/12 10:13:56;;;;;;;1.33;1.23;;;19.40;38.00;;;;;;5085681;28;46835;-26
2021/12/12 10:16:24;;;;;;;1.00;1.00;;;19.50;37.90;;;;;;5085487;28;47213;-26
2021/12/12 10:18:55;;;;;;;1.02;1.02;;;19.60;37.90;;;;;;5085280;28;48239;-18
2021/12/12 10:21:26;;;;;;;1.13;1.10;;;19.60;37.90;;;;;;5085327;28;47133;-18
2021/12/12 10:24:02;;;;;;;1.23;1.13;;;19.70;37.70;;;;;;5085579;28;46881;-17
2021/12/12 10:26:31;;;;;;;1.17;1.10;;;19.80;37.80;;;;;;5085667;28;46880;-17
2021/12/12 10:29:03;;;;;;;1.40;1.30;;;19.90;37.60;;;;;;5084949;28;48628;-18
2021/12/12 10:31:31;;;;;;;1.00;1.00;;;19.90;37.60;;;;;;5085263;28;47086;-26
2021/12/12 10:33:59;;;;;;;1.08;1.02;;;20.00;37.60;;;;;;5085160;27;46952;-26
2021/12/12 10:36:29;;;;;;;1.10;1.00;;;20.10;37.50;;;;;;5085281;28;46963;-26
2021/12/12 10:38:58;;;;;;;0.93;0.93;;;20.10;37.40;;;;;;5084928;28;49046;-25
2021/12/12 10:41:26;;;;;;;1.50;1.27;;;20.20;37.40;;;;;;5086420;28;46929;-27
2021/12/12 10:43:56;;;;;;;1.10;1.10;;;20.20;37.40;;;;;;5088847;28;46787;-26
2021/12/12 10:46:26;;;;;;;1.02;1.00;;;20.30;37.40;;;;;;5088490;28;47088;-27
2021/12/12 10:49:00;;;;;;;1.02;1.02;;;20.30;37.40;;;;;;5087544;28;47927;-27
2021/12/12 10:51:27;;;;;;;1.13;1.02;;;20.30;37.40;;;;;;5087319;28;46855;-27
2021/12/12 10:54:00;;;;;;;1.00;1.00;;;20.40;37.40;;;;;;5088733;28;46810;-26
2021/12/12 10:56:31;;;;;;;0.93;0.93;;;20.40;37.40;;;;;;5088227;28;47137;-27
2021/12/12 10:58:59;;;;;;;1.23;1.15;;;20.40;37.30;;;;;;5088634;27;47976;-26
2021/12/12 11:01:29;;;;;;;1.65;1.17;;;20.50;37.30;;;;;;5088168;28;47220;-26
2021/12/12 11:04:00;;;;;;;1.05;1.00;;;20.50;37.30;;;;;;5088797;28;46813;-26
2021/12/12 11:06:28;;;;;;;0.77;0.77;;;20.50;37.20;;;;;;5088528;28;46913;-26
2021/12/12 11:08:58;;;;;;;1.27;1.20;;;20.60;37.30;;;;;;5088118;28;47946;-26
2021/12/12 11:11:31;;;;;;;1.02;1.00;;;20.60;37.20;;;;;;5088298;28;47092;-26
2021/12/12 11:14:02;;;;;;;1.13;1.10;;;20.50;37.20;;;;;;5088198;28;46853;-26
2021/12/12 11:16:33;;;;;;;0.90;0.90;;;20.50;37.30;;;;;;5088508;28;47159;-26
2021/12/12 11:19:02;;;;;;;0.80;0.80;;;20.50;37.40;;;;;;5088327;28;48807;-26
2021/12/12 11:21:31;;;;;;;1.13;1.10;;;20.50;37.50;;;;;;5088126;28;47504;-26
2021/12/12 11:24:00;;;;;;;1.10;1.10;;;20.40;37.40;;;;;;5088172;28;46840;-26
2021/12/12 11:26:29;;;;;;;1.15;1.10;;;20.50;37.50;;;;;;5088207;28;47135;-26
2021/12/12 11:28:57;;;;;;;1.05;1.00;;;20.50;37.40;;;;;;5087763;28;48126;-18
2021/12/12 11:31:31;;;;;;;0.90;0.90;;;20.60;37.30;;;;;;5087919;28;47458;-16
2021/12/12 11:33:59;;;;;;;1.13;1.02;;;20.70;37.20;;;;;;5088179;28;46727;-17
2021/12/12 11:36:28;;;;;;;1.27;1.08;;;20.70;37.10;;;;;;5087962;28;47141;-17
2021/12/12 11:39:04;;;;;;;1.15;1.10;;;20.80;37.20;;;;;;5087731;28;48260;-17
2021/12/12 11:41:35;;;;;;;1.10;1.00;;;20.80;37.10;;;;;;5087707;27;46932;-17
2021/12/12 11:44:04;;;;;;;1.05;1.00;;;20.90;36.90;;;;;;5104097;27;46879;-19
2021/12/12 11:46:33;;;;;;;0.90;0.90;;;20.90;37.00;;;;;;5108293;27;46720;-18
2021/12/12 11:49:05;;;;;;;1.30;1.20;;;21.00;37.00;;;;;;5108177;27;48101;-17
2021/12/12 11:51:34;;;;;;;1.10;0.98;;;21.00;36.90;;;;;;5107802;27;46993;-18
2021/12/12 11:54:04;;;;;;;1.15;1.05;;;21.00;36.90;;;;;;5107142;27;46826;-18
2021/12/12 11:56:32;;;;;;;1.08;1.05;;;21.10;36.90;;;;;;5107418;27;47265;-17
2021/12/12 11:59:03;;;;;;;1.05;1.05;;;21.10;36.80;;;;;;5107961;27;48089;-18
2021/12/12 12:01:33;;;;;;;0.80;0.80;;;21.10;36.70;;;;;;5107717;27;46948;-18
2021/12/12 12:04:24;;;;;;;1.02;1.02;;;21.20;36.80;;;;;;5108145;27;46959;-17
2021/12/12 12:07:10;;;;;;;0.93;0.93;;;21.20;36.80;;;;;;5107904;27;46780;-18
2021/12/12 12:10:03;;;;;;;1.10;0.98;;;21.20;36.60;;;;;;5107721;27;47321;-18
2021/12/12 12:12:52;;;;;;;1.00;1.00;;;21.20;36.70;;;;;;5105652;27;46817;-17
2021/12/12 12:15:21;;;;;;;1.00;1.00;;;21.30;36.70;;;;;;5107612;27;46897;-18
2021/12/12 12:17:58;;;;;;;1.15;1.00;;;21.30;36.70;;;;;;5107711;27;46896;-17
2021/12/12 12:20:36;;;;;;;0.90;0.90;;;21.30;36.70;;;;;;5107240;27;47962;-17
2021/12/12 12:23:11;;;;;;;1.23;1.02;;;21.30;36.70;;;;;;5107642;27;47384;-18
2021/12/12 12:28:21;;;;;;;1.30;1.20;;;21.30;36.70;;;;;;5107835;27;46912;-18
2021/12/12 12:31:37;;;;;;;1.23;1.13;;;21.30;36.80;;;;;;5106927;27;48093;-17
2021/12/12 12:34:45;;;;;;;1.20;1.15;;;21.30;36.80;;;;;;5107440;27;47090;-18
2021/12/12 12:37:49;;;;;;;1.30;1.20;;;21.30;36.80;;;;;;5107626;27;46755;-17
2021/12/12 12:40:59;;;;;;;1.23;1.13;;;21.20;36.90;;;;;;5107249;27;46922;-17
2021/12/12 12:44:03;;;;;;;1.00;1.00;;;21.20;37.10;;;;;;5107462;27;46895;-18
2021/12/12 12:47:08;;;;;;;1.20;1.10;;;21.10;37.10;;;;;;5107004;27;47186;-17
2021/12/12 12:50:09;;;;;;;1.35;1.17;;;21.00;37.30;;;;;;5107465;27;47032;-18
2021/12/12 12:53:09;;;;;;;1.20;1.10;;;20.90;37.40;;;;;;5107187;27;46850;-18
2021/12/12 12:56:06;;;;;;;1.20;1.10;;;20.90;37.60;;;;;;5106439;27;48397;-17
2021/12/12 12:58:44;;;;;;;1.10;1.10;;;20.80;37.70;;;;;;5079340;27;47170;-17
2021/12/12 13:01:14;;;;;;;1.50;1.20;;;20.70;38.40;;;;;;5106942;27;46842;-17
2021/12/12 13:03:48;;;;;;;1.00;1.00;;;20.70;37.90;;;;;;5107379;27;46860;-17
2021/12/12 13:07:03;;;;;;;1.25;1.15;;;20.60;38.00;;;;;;5105972;27;47954;-17
2021/12/12 13:09:36;;;;;;;1.20;1.10;;;20.50;38.10;;;;;;5103936;27;46830;-18
2021/12/12 13:12:29;;;;;;;1.33;1.20;;;20.50;38.30;;;;;;5106993;27;46888;-17
2021/12/12 13:15:02;;;;;;;1.65;1.27;;;20.40;38.30;;;;;;5107199;27;46903;-17
2021/12/12 13:17:50;;;;;;;1.02;0.98;;;20.30;38.50;;;;;;5106879;27;47951;-17
2021/12/12 13:20:42;;;;;;;1.40;1.30;;;20.30;38.50;;;;;;5106269;27;46975;-17
2021/12/12 13:23:24;;;;;;;1.10;1.05;;;20.40;38.50;;;;;;5104642;27;48544;-17
2021/12/12 13:25:54;;;;;;;2.03;1.20;;;20.50;38.40;;;;;;5097481;27;47204;-17
2021/12/12 13:28:27;;;;;;;1.15;1.10;;;20.60;38.20;;;;;;5086015;28;49067;-18